createdAt,value
2017-09-16T00:00:44.613Z,60.87
2017-09-16T00:01:44.625Z,61.06
2017-09-16T00:02:44.646Z,61.54
2017-09-16T00:03:44.783Z,60.87
2017-09-16T00:04:45.100Z,61.44
2017-09-16T00:05:44.801Z,61.35
2017-09-16T00:06:44.817Z,61.35
2017-09-16T00:07:45.286Z,61.44
2017-09-16T00:08:45.270Z,61.54
2017-09-16T00:09:45.294Z,61.44
2017-09-16T00:10:44.954Z,61.06
2017-09-16T00:11:45.267Z,61.16
2017-09-16T00:12:44.952Z,61.35
2017-09-16T00:13:44.949Z,61.25
2017-09-16T00:14:45.378Z,61.16
2017-09-16T00:15:45.090Z,61.35
2017-09-16T00:16:45.408Z,61.06
2017-09-16T00:17:45.096Z,61.44
2017-09-16T00:18:45.411Z,61.44
2017-09-16T00:19:45.092Z,61.63
2017-09-16T00:20:45.419Z,61.63
2017-09-16T00:21:45.417Z,61.63
2017-09-16T00:22:45.103Z,61.63
2017-09-16T00:23:45.454Z,61.63
2017-09-16T00:24:45.451Z,61.54
2017-09-16T00:25:45.156Z,61.72
2017-09-16T00:26:45.170Z,61.72
2017-09-16T00:27:45.488Z,61.54
2017-09-16T00:28:45.512Z,61.54
2017-09-16T00:29:45.161Z,62.01
2017-09-16T00:30:45.487Z,61.92
2017-09-16T00:31:45.511Z,61.72
2017-09-16T00:32:45.525Z,62.11
2017-09-16T00:33:45.220Z,62.01
2017-09-16T00:34:45.566Z,61.82
2017-09-16T00:35:45.577Z,61.98
2017-09-16T00:36:45.276Z,61.82
2017-09-16T00:37:45.611Z,61.92
2017-09-16T00:38:45.661Z,61.92
2017-09-16T00:39:45.326Z,61.89
2017-09-16T00:40:45.342Z,61.6
2017-09-16T00:41:45.367Z,62.08
2017-09-16T00:42:45.381Z,62.08
2017-09-16T00:43:45.720Z,61.98
2017-09-16T00:44:45.742Z,62.27
2017-09-16T00:45:45.760Z,61.6
2017-09-16T00:46:45.453Z,62.08
2017-09-16T00:47:45.825Z,61.69
2017-09-16T00:48:45.493Z,62.18
2017-09-16T00:49:45.509Z,62.08
2017-09-16T00:51:17.601Z,62.84
2017-09-16T00:51:45.544Z,62.37
2017-09-16T00:52:45.886Z,62.27
2017-09-16T00:53:45.907Z,62.65
2017-09-16T00:54:45.598Z,62.65
2017-09-16T00:55:45.621Z,62.65
2017-09-16T00:56:45.956Z,62.65
2017-09-16T00:57:45.655Z,62.65
2017-09-16T00:58:45.999Z,62.46
2017-09-16T00:59:46.013Z,62.18
2017-09-16T01:00:45.710Z,62.55
2017-09-16T01:01:46.179Z,62.75
2017-09-16T01:02:46.216Z,62.94
2017-09-16T01:03:45.899Z,62.75
2017-09-16T01:04:45.899Z,62.84
2017-09-16T01:05:45.897Z,62.46
2017-09-16T01:06:46.358Z,62.75
2017-09-16T01:07:46.353Z,62.46
2017-09-16T01:08:46.461Z,62.84
2017-09-16T01:09:46.369Z,63.13
2017-09-16T01:10:46.051Z,62.75
2017-09-16T01:11:46.165Z,62.94
2017-09-16T01:12:46.376Z,62.75
2017-09-16T01:13:46.121Z,62.94
2017-09-16T01:14:46.060Z,62.94
2017-09-16T01:15:46.372Z,63.23
2017-09-16T01:16:46.409Z,62.94
2017-09-16T01:17:46.086Z,63.13
2017-09-16T01:18:46.125Z,63.23
2017-09-16T01:19:46.656Z,63.03
2017-09-16T01:20:46.122Z,63.23
2017-09-16T01:21:46.450Z,63.23
2017-09-16T01:22:46.117Z,63.23
2017-09-16T01:23:46.175Z,63.13
2017-09-16T01:24:46.471Z,63.23
2017-09-16T01:25:46.164Z,63.32
2017-09-16T01:26:46.229Z,63.42
2017-09-16T01:27:46.518Z,63.23
2017-09-16T01:28:46.218Z,63.2
2017-09-16T01:29:46.673Z,63.32
2017-09-16T01:30:46.252Z,63.32
2017-09-16T01:31:46.270Z,63.96
2017-09-16T01:32:46.706Z,63.67
2017-09-16T01:33:46.308Z,63.99
2017-09-16T01:34:46.322Z,63.96
2017-09-16T01:35:46.705Z,63.99
2017-09-16T01:36:46.710Z,63.7
2017-09-16T01:37:46.710Z,63.42
2017-09-16T01:38:46.401Z,63.89
2017-09-16T01:39:46.838Z,63.2
2017-09-16T01:40:46.867Z,63.7
2017-09-16T01:41:46.455Z,63.96
2017-09-16T01:42:46.468Z,63.96
2017-09-16T01:43:46.494Z,63.39
2017-09-16T01:44:46.503Z,63.76
2017-09-16T01:45:46.846Z,63.76
2017-09-16T01:46:46.540Z,63.39
2017-09-16T01:47:46.557Z,63.67
2017-09-16T01:48:46.573Z,63.67
2017-09-16T01:49:46.592Z,63.7
2017-09-16T01:50:46.609Z,63.67
2017-09-16T01:51:47.159Z,64.43
2017-09-16T01:52:46.972Z,63.86
2017-09-16T01:53:46.991Z,64.25
2017-09-16T01:54:46.686Z,64.25
2017-09-16T01:55:47.022Z,64.15
2017-09-16T01:56:47.041Z,64.34
2017-09-16T01:57:47.056Z,64.15
2017-09-16T01:58:47.080Z,64.25
2017-09-16T01:59:46.773Z,64.05
2017-09-16T02:00:47.110Z,64.34
2017-09-16T02:01:47.564Z,63.96
2017-09-16T02:02:47.162Z,64.05
2017-09-16T02:03:47.165Z,63.86
2017-09-16T02:04:47.181Z,64.53
2017-09-16T02:05:47.199Z,64.34
2017-09-16T02:06:46.894Z,64.53
2017-09-16T02:07:46.913Z,64.62
2017-09-16T02:08:46.932Z,64.62
2017-09-16T02:09:47.273Z,64.34
2017-09-16T02:10:47.289Z,64.15
2017-09-16T02:11:47.007Z,64.25
2017-09-16T02:12:47.333Z,64.53
2017-09-16T02:13:47.344Z,64.53
2017-09-16T02:14:47.361Z,64.34
2017-09-16T02:15:47.053Z,64.72
2017-09-16T02:16:47.398Z,64.62
2017-09-16T02:17:47.413Z,64.62
2017-09-16T02:18:47.107Z,64.81
2017-09-16T02:19:47.448Z,64.62
2017-09-16T02:20:47.469Z,64.72
2017-09-16T02:21:47.160Z,64.91
2017-09-16T02:22:47.502Z,64.72
2017-09-16T02:23:47.198Z,64.81
2017-09-16T02:24:47.536Z,64.81
2017-09-16T02:25:47.231Z,64.34
2017-09-16T02:26:47.250Z,64.72
2017-09-16T02:27:47.588Z,65.01
2017-09-16T02:28:47.734Z,65.01
2017-09-16T02:29:47.624Z,64.81
2017-09-16T02:30:47.649Z,64.62
2017-09-16T02:31:47.340Z,65.01
2017-09-16T02:32:47.357Z,65.2
2017-09-16T02:33:47.372Z,64.34
2017-09-16T02:34:47.715Z,65.39
2017-09-16T02:35:47.826Z,65.3
2017-09-16T02:36:47.825Z,65.48
2017-09-16T02:37:47.823Z,65.67
2017-09-16T02:38:47.823Z,64.72
2017-09-16T02:39:47.832Z,65.48
2017-09-16T02:40:47.528Z,64.91
2017-09-16T02:41:47.839Z,65.1
2017-09-16T02:42:47.856Z,65.3
2017-09-16T02:43:48.058Z,65.01
2017-09-16T02:44:47.897Z,65.39
2017-09-16T02:45:47.912Z,65.3
2017-09-16T02:46:47.923Z,65.2
2017-09-16T02:47:47.945Z,65.1
2017-09-16T02:48:47.960Z,65.2
2017-09-16T02:49:47.975Z,65.1
2017-09-16T02:50:47.994Z,65.2
2017-09-16T02:51:47.692Z,65.39
2017-09-16T02:52:48.029Z,65.58
2017-09-16T02:53:48.053Z,65.2
2017-09-16T02:54:47.767Z,65.77
2017-09-16T02:55:48.083Z,65.01
2017-09-16T02:56:47.777Z,65.2
2017-09-16T02:57:48.122Z,65.77
2017-09-16T02:58:48.135Z,65.77
2017-09-16T02:59:47.834Z,65.01
2017-09-16T03:00:48.175Z,65.3
2017-09-16T03:01:47.867Z,65.2
2017-09-16T03:02:48.208Z,65.39
2017-09-16T03:03:48.232Z,65.39
2017-09-16T03:04:48.244Z,65.39
2017-09-16T03:05:47.936Z,65.58
2017-09-16T03:06:48.662Z,66.06
2017-09-16T03:07:48.301Z,65.87
2017-09-16T03:08:48.314Z,65.67
2017-09-16T03:09:48.328Z,66.15
2017-09-16T03:10:48.349Z,65.87
2017-09-16T03:11:48.366Z,65.67
2017-09-16T03:12:48.383Z,65.77
2017-09-16T03:13:48.082Z,65.77
2017-09-16T03:14:48.418Z,65.96
2017-09-16T03:15:48.530Z,65.87
2017-09-16T03:16:48.127Z,65.67
2017-09-16T03:17:48.474Z,65.77
2017-09-16T03:18:48.494Z,65.77
2017-09-16T03:19:48.508Z,65.87
2017-09-16T03:20:48.523Z,66.06
2017-09-16T03:21:48.222Z,65.87
2017-09-16T03:22:48.560Z,65.77
2017-09-16T03:23:48.574Z,65.58
2017-09-16T03:24:48.591Z,65.67
2017-09-16T03:25:48.287Z,65.96
2017-09-16T03:26:48.628Z,65.96
2017-09-16T03:27:48.648Z,66.15
2017-09-16T03:28:48.667Z,66.15
2017-09-16T03:29:48.685Z,66.15
2017-09-16T03:30:48.703Z,66.15
2017-09-16T03:31:48.716Z,66.15
2017-09-16T03:32:48.579Z,65.87
2017-09-16T03:33:48.749Z,65.87
2017-09-16T03:34:48.767Z,66.06
2017-09-16T03:35:48.792Z,66.35
2017-09-16T03:36:48.814Z,66.02
2017-09-16T03:37:48.613Z,66.12
2017-09-16T03:38:48.836Z,66.5
2017-09-16T03:39:48.533Z,66.12
2017-09-16T03:40:48.873Z,66.41
2017-09-16T03:41:48.618Z,66.15
2017-09-16T03:42:48.586Z,66.22
2017-09-16T03:43:48.927Z,66.44
2017-09-16T03:44:48.618Z,66.22
2017-09-16T03:45:48.957Z,66.12
2017-09-16T03:46:48.977Z,66.41
2017-09-16T03:47:48.674Z,66.12
2017-09-16T03:48:49.009Z,66.5
2017-09-16T03:49:49.042Z,66.5
2017-09-16T03:50:49.044Z,66.22
2017-09-16T03:51:48.741Z,66.6
2017-09-16T03:52:49.079Z,66.22
2017-09-16T03:53:49.097Z,66.31
2017-09-16T03:54:49.117Z,66.5
2017-09-16T03:55:49.135Z,66.5
2017-09-16T03:56:49.151Z,66.6
2017-09-16T03:57:49.189Z,66.88
2017-09-16T03:58:49.187Z,66.98
2017-09-16T03:59:48.879Z,66.88
2017-09-16T04:00:49.217Z,66.78
2017-09-16T04:01:48.916Z,66.31
2017-09-16T04:02:48.932Z,66.69
2017-09-16T04:03:49.273Z,66.41
2017-09-16T04:04:49.293Z,66.88
2017-09-16T04:05:49.305Z,66.6
2017-09-16T04:06:49.326Z,66.6
2017-09-16T04:07:49.343Z,66.69
2017-09-16T04:08:49.037Z,66.31
2017-09-16T04:09:49.054Z,66.6
2017-09-16T04:10:49.550Z,66.5
2017-09-16T04:11:49.521Z,66.41
2017-09-16T04:12:49.430Z,66.69
2017-09-16T04:13:49.122Z,66.98
2017-09-16T04:14:49.464Z,66.69
2017-09-16T04:15:49.484Z,66.31
2017-09-16T04:16:49.496Z,66.41
2017-09-16T04:17:49.192Z,66.31
2017-09-16T04:18:49.535Z,67.17
2017-09-16T04:19:49.570Z,67.27
2017-09-16T04:20:49.246Z,66.41
2017-09-16T04:21:49.583Z,66.41
2017-09-16T04:22:49.281Z,66.5
2017-09-16T04:23:49.298Z,66.69
2017-09-16T04:24:49.639Z,66.5
2017-09-16T04:25:49.775Z,66.6
2017-09-16T04:26:49.669Z,67.07
2017-09-16T04:27:49.363Z,66.69
2017-09-16T04:28:49.708Z,66.69
2017-09-16T04:29:49.403Z,66.78
2017-09-16T04:30:49.546Z,66.6
2017-09-16T04:31:49.757Z,66.6
2017-09-16T04:32:49.776Z,66.6
2017-09-16T04:33:49.796Z,66.78
2017-09-16T04:34:49.487Z,66.6
2017-09-16T04:35:49.826Z,66.5
2017-09-16T04:36:49.523Z,66.6
2017-09-16T04:37:49.538Z,66.41
2017-09-16T04:38:49.881Z,66.41
2017-09-16T04:39:49.573Z,66.78
2017-09-16T04:40:49.913Z,66.41
2017-09-16T04:41:49.613Z,66.69
2017-09-16T04:42:49.949Z,66.6
2017-09-16T04:43:49.973Z,66.41
2017-09-16T04:44:49.663Z,66.5
2017-09-16T04:45:49.698Z,67.07
2017-09-16T04:46:49.696Z,66.88
2017-09-16T04:47:50.038Z,66.88
2017-09-16T04:48:50.063Z,66.98
2017-09-16T04:49:49.746Z,66.88
2017-09-16T04:50:50.091Z,66.88
2017-09-16T04:51:49.894Z,66.88
2017-09-16T04:52:50.119Z,66.78
2017-09-16T04:53:49.818Z,66.88
2017-09-16T04:54:50.154Z,67.07
2017-09-16T04:55:50.174Z,66.88
2017-09-16T04:56:50.190Z,67.27
2017-09-16T04:57:49.884Z,67.36
2017-09-16T04:58:50.228Z,67.46
2017-09-16T04:59:49.921Z,66.98
2017-09-16T05:00:49.936Z,66.88
2017-09-16T05:01:50.299Z,66.98
2017-09-16T05:02:50.290Z,66.98
2017-09-16T05:03:50.313Z,67.07
2017-09-16T05:04:50.326Z,67.07
2017-09-16T05:05:50.022Z,66.98
2017-09-16T05:06:50.364Z,67.42
2017-09-16T05:07:50.375Z,67.17
2017-09-16T05:08:50.073Z,67.07
2017-09-16T05:09:50.089Z,67.42
2017-09-16T05:10:50.112Z,67.36
2017-09-16T05:11:50.132Z,67.07
2017-09-16T05:12:50.462Z,66.88
2017-09-16T05:13:50.158Z,67.14
2017-09-16T05:14:50.175Z,66.75
2017-09-16T05:15:50.517Z,67.23
2017-09-16T05:16:50.528Z,66.85
2017-09-16T05:17:50.546Z,66.88
2017-09-16T05:18:50.567Z,67.07
2017-09-16T05:19:50.259Z,67.55
2017-09-16T05:20:50.280Z,67.36
2017-09-16T05:21:50.296Z,67.36
2017-09-16T05:22:50.757Z,67.27
2017-09-16T05:23:50.650Z,68.03
2017-09-16T05:24:50.668Z,68.12
2017-09-16T05:25:50.915Z,67.33
2017-09-16T05:26:50.919Z,67.27
2017-09-16T05:27:50.601Z,66.98
2017-09-16T05:28:50.928Z,66.98
2017-09-16T05:29:50.607Z,67.27
2017-09-16T05:30:50.607Z,67.83
2017-09-16T05:31:50.606Z,67.27
2017-09-16T05:32:50.919Z,67.27
2017-09-16T05:33:50.602Z,67.46
2017-09-16T05:34:50.927Z,67.55
2017-09-16T05:35:50.537Z,67.46
2017-09-16T05:36:50.551Z,67.55
2017-09-16T05:37:50.894Z,67.93
2017-09-16T05:38:50.904Z,67.93
2017-09-16T05:39:50.603Z,67.74
2017-09-16T05:40:50.618Z,67.83
2017-09-16T05:41:50.960Z,67.74
2017-09-16T05:42:50.983Z,67.74
2017-09-16T05:43:50.688Z,67.74
2017-09-16T05:44:51.012Z,67.74
2017-09-16T05:45:50.705Z,67.65
2017-09-16T05:46:51.040Z,67.93
2017-09-16T05:47:50.741Z,67.83
2017-09-16T05:48:51.101Z,67.55
2017-09-16T05:49:51.115Z,68.51
2017-09-16T05:50:51.114Z,67.55
2017-09-16T05:51:51.172Z,67.55
2017-09-16T05:52:50.826Z,67.74
2017-09-16T05:53:51.163Z,67.74
2017-09-16T05:54:51.200Z,67.93
2017-09-16T05:55:51.199Z,67.93
2017-09-16T05:56:50.891Z,67.83
2017-09-16T05:57:50.909Z,68.32
2017-09-16T05:58:51.253Z,68.41
2017-09-16T05:59:50.942Z,68.41
2017-09-16T06:00:51.282Z,68.41
2017-09-16T06:01:51.300Z,68.22
2017-09-16T06:02:51.324Z,68.22
2017-09-16T06:03:51.335Z,68.7
2017-09-16T06:04:51.349Z,68.7
2017-09-16T06:05:51.372Z,68.22
2017-09-16T06:06:51.066Z,68.6
2017-09-16T06:07:51.082Z,68.32
2017-09-16T06:08:51.514Z,68.32
2017-09-16T06:09:51.120Z,68.98
2017-09-16T06:10:51.498Z,68.79
2017-09-16T06:11:51.150Z,68.51
2017-09-16T06:12:51.493Z,69.17
2017-09-16T06:13:51.605Z,68.7
2017-09-16T06:14:51.603Z,68.98
2017-09-16T06:15:51.629Z,68.98
2017-09-16T06:16:51.638Z,68.7
2017-09-16T06:17:51.572Z,68.7
2017-09-16T06:18:51.590Z,68.32
2017-09-16T06:19:51.608Z,68.79
2017-09-16T06:20:51.625Z,69.08
2017-09-16T06:21:51.392Z,69.27
2017-09-16T06:22:51.660Z,69.08
2017-09-16T06:23:51.400Z,69.11
2017-09-16T06:24:51.399Z,69.4
2017-09-16T06:25:51.710Z,69.97
2017-09-16T06:26:51.755Z,69.78
2017-09-16T06:27:51.742Z,69.68
2017-09-16T06:28:51.506Z,69.4
2017-09-16T06:29:51.780Z,69.49
2017-09-16T06:30:51.798Z,69.87
2017-09-16T06:31:51.815Z,70.07
2017-09-16T06:32:51.538Z,69.68
2017-09-16T06:33:51.848Z,69.49
2017-09-16T06:34:51.542Z,69.78
2017-09-16T06:35:51.890Z,69.31
2017-09-16T06:36:51.901Z,69.49
2017-09-16T06:37:51.950Z,69.68
2017-09-16T06:38:51.613Z,69.4
2017-09-16T06:39:51.628Z,69.49
2017-09-16T06:40:51.975Z,69.43
2017-09-16T06:41:51.990Z,69.72
2017-09-16T06:42:51.679Z,69.82
2017-09-16T06:43:51.700Z,70.2
2017-09-16T06:44:51.712Z,69.82
2017-09-16T06:45:51.733Z,69.62
2017-09-16T06:46:52.071Z,70.39
2017-09-16T06:47:52.423Z,69.43
2017-09-16T06:48:51.782Z,69.53
2017-09-16T06:49:52.124Z,69.62
2017-09-16T06:50:51.815Z,69.53
2017-09-16T06:51:52.156Z,69.72
2017-09-16T06:52:52.177Z,69.72
2017-09-16T06:53:51.868Z,69.24
2017-09-16T06:54:52.214Z,69.95
2017-09-16T06:55:52.227Z,69.76
2017-09-16T06:56:52.242Z,69.76
2017-09-16T06:57:52.259Z,69.76
2017-09-16T06:58:52.278Z,69.76
2017-09-16T06:59:52.298Z,69.85
2017-09-16T07:00:51.992Z,69.18
2017-09-16T07:01:52.009Z,69.47
2017-09-16T07:02:52.442Z,69.56
2017-09-16T07:03:52.367Z,69.76
2017-09-16T07:04:52.384Z,68.8
2017-09-16T07:05:52.403Z,68.8
2017-09-16T07:06:52.423Z,69.09
2017-09-16T07:07:52.117Z,69.09
2017-09-16T07:08:52.453Z,68.93
2017-09-16T07:09:52.477Z,68.74
2017-09-16T07:10:52.164Z,68.74
2017-09-16T07:11:52.507Z,68.16
2017-09-16T07:12:52.321Z,68.55
2017-09-16T07:13:52.312Z,68.07
2017-09-16T07:14:52.793Z,68.45
2017-09-16T07:15:52.473Z,68.07
2017-09-16T07:16:52.274Z,67.88
2017-09-16T07:17:52.755Z,67.78
2017-09-16T07:18:52.305Z,68.55
2017-09-16T07:19:52.647Z,67.69
2017-09-16T07:20:52.668Z,67.88
2017-09-16T07:21:52.682Z,68.26
2017-09-16T07:22:52.702Z,67.43
2017-09-16T07:23:52.721Z,67.05
2017-09-16T07:24:52.737Z,67.63
2017-09-16T07:25:52.752Z,67.14
2017-09-16T07:26:52.449Z,66.96
2017-09-16T07:27:52.787Z,66.86
2017-09-16T07:28:52.815Z,66.67
2017-09-16T07:29:52.828Z,66.76
2017-09-16T07:30:52.850Z,66.57
2017-09-16T07:31:52.540Z,66.19
2017-09-16T07:32:52.882Z,67.14
2017-09-16T07:33:52.895Z,66.47
2017-09-16T07:34:52.922Z,66.38
2017-09-16T07:35:52.937Z,66.28
2017-09-16T07:36:52.628Z,65.71
2017-09-16T07:37:52.766Z,65.9
2017-09-16T07:38:52.989Z,65.52
2017-09-16T07:39:52.681Z,65.26
2017-09-16T07:40:53.022Z,65.55
2017-09-16T07:41:52.718Z,64.85
2017-09-16T07:42:52.734Z,65.08
2017-09-16T07:43:53.074Z,64.98
2017-09-16T07:44:53.095Z,64.69
2017-09-16T07:45:53.116Z,64.98
2017-09-16T07:46:53.251Z,64.59
2017-09-16T07:47:52.826Z,64.69
2017-09-16T07:48:52.862Z,64.88
2017-09-16T07:49:53.188Z,64.69
2017-09-16T07:50:53.201Z,64.59
2017-09-16T07:51:53.225Z,64.69
2017-09-16T07:52:52.920Z,64.98
2017-09-16T07:53:52.934Z,64.98
2017-09-16T07:54:52.964Z,65.11
2017-09-16T07:55:53.294Z,64.92
2017-09-16T07:56:53.313Z,64.72
2017-09-16T07:57:53.009Z,64.82
2017-09-16T07:58:53.028Z,64.34
2017-09-16T07:59:53.048Z,64.53
2017-09-16T08:00:53.394Z,64.25
2017-09-16T08:01:53.404Z,63.96
2017-09-16T08:02:53.422Z,63.96
2017-09-16T08:03:53.122Z,64.15
2017-09-16T08:04:53.143Z,63.76
2017-09-16T08:05:53.153Z,63.86
2017-09-16T08:06:53.497Z,63.42
2017-09-16T08:07:53.516Z,63.32
2017-09-16T08:08:53.535Z,63.13
2017-09-16T08:09:53.230Z,63.22
2017-09-16T08:10:53.572Z,63.03
2017-09-16T08:11:53.588Z,62.93
2017-09-16T08:12:53.608Z,62.84
2017-09-16T08:13:53.624Z,62.93
2017-09-16T08:14:53.428Z,62.59
2017-09-16T08:15:53.882Z,62.87
2017-09-16T08:16:53.880Z,62.2
2017-09-16T08:17:53.888Z,61.82
2017-09-16T08:18:53.475Z,61.53
2017-09-16T08:19:53.831Z,61.24
2017-09-16T08:20:53.526Z,61.63
2017-09-16T08:21:53.864Z,61.05
2017-09-16T08:22:53.853Z,61.72
2017-09-16T08:23:53.531Z,61.34
2017-09-16T08:24:53.833Z,61.15
2017-09-16T08:25:53.851Z,61.72
2017-09-16T08:26:53.544Z,61.53
2017-09-16T08:27:53.564Z,61.53
2017-09-16T08:28:53.907Z,61.63
2017-09-16T08:29:53.927Z,61.66
2017-09-16T08:30:53.623Z,61.46
2017-09-16T08:31:53.641Z,61.46
2017-09-16T08:32:53.982Z,61.18
2017-09-16T08:33:54.003Z,61.27
2017-09-16T08:34:54.018Z,61.46
2017-09-16T08:35:54.040Z,61.46
2017-09-16T08:36:54.063Z,60.82
2017-09-16T08:37:53.756Z,60.99
2017-09-16T08:38:53.772Z,60.35
2017-09-16T08:39:54.220Z,60.05
2017-09-16T08:40:53.812Z,60.44
2017-09-16T08:41:54.227Z,59.86
2017-09-16T08:42:53.849Z,59.86
2017-09-16T08:43:54.190Z,59.67
2017-09-16T08:44:53.886Z,59.67
2017-09-16T08:45:53.908Z,59.58
2017-09-16T08:46:54.041Z,59.67
2017-09-16T08:47:54.367Z,59.86
2017-09-16T08:48:54.291Z,59.09
2017-09-16T08:49:54.310Z,59.32
2017-09-16T08:50:54.002Z,59.12
2017-09-16T08:51:54.344Z,58.64
2017-09-16T08:52:54.042Z,58.07
2017-09-16T08:53:54.390Z,58.45
2017-09-16T08:54:54.080Z,57.88
2017-09-16T08:55:54.203Z,57.68
2017-09-16T08:56:54.209Z,57.59
2017-09-16T08:57:54.236Z,57.4
2017-09-16T08:58:54.347Z,57.33
2017-09-16T08:59:54.501Z,57.21
2017-09-16T09:00:54.522Z,57.11
2017-09-16T09:01:54.547Z,57.33
2017-09-16T09:02:54.235Z,57.21
2017-09-16T09:03:54.579Z,57.33
2017-09-16T09:04:54.599Z,57.33
2017-09-16T09:05:54.617Z,57.04
2017-09-16T09:06:54.376Z,57.52
2017-09-16T09:07:54.655Z,57.04
2017-09-16T09:08:54.383Z,56.95
2017-09-16T09:09:54.384Z,56.66
2017-09-16T09:10:54.719Z,56.76
2017-09-16T09:11:54.737Z,56.37
2017-09-16T09:12:54.438Z,56.49
2017-09-16T09:13:54.455Z,56.56
2017-09-16T09:14:54.828Z,56.37
2017-09-16T09:15:54.493Z,55.63
2017-09-16T09:16:54.513Z,55.82
2017-09-16T09:17:54.856Z,55.53
2017-09-16T09:18:54.551Z,54.77
2017-09-16T09:19:54.897Z,55.24
2017-09-16T09:20:54.594Z,55.05
2017-09-16T09:21:54.934Z,55.05
2017-09-16T09:22:54.632Z,54.77
2017-09-16T09:23:54.654Z,55.05
2017-09-16T09:24:54.993Z,54.28
2017-09-16T09:25:54.694Z,54.38
2017-09-16T09:26:54.715Z,54.57
2017-09-16T09:27:55.055Z,54.86
2017-09-16T09:28:54.753Z,54.77
2017-09-16T09:29:55.101Z,54.79
2017-09-16T09:30:55.118Z,54.6
2017-09-16T09:31:55.141Z,54.22
2017-09-16T09:32:55.156Z,54.41
2017-09-16T09:33:55.179Z,54.41
2017-09-16T09:34:54.872Z,54.22
2017-09-16T09:35:55.217Z,54.02
2017-09-16T09:36:54.934Z,53.54
2017-09-16T09:37:54.934Z,53.92
2017-09-16T09:38:55.078Z,53.92
2017-09-16T09:39:54.978Z,54.02
2017-09-16T09:40:54.998Z,53.35
2017-09-16T09:41:55.342Z,53.83
2017-09-16T09:42:55.037Z,53.74
2017-09-16T09:43:55.384Z,53.09
2017-09-16T09:44:55.419Z,53.57
2017-09-16T09:45:55.423Z,52.89
2017-09-16T09:46:55.120Z,53.57
2017-09-16T09:47:55.140Z,53.66
2017-09-16T09:48:55.483Z,52.99
2017-09-16T09:49:55.182Z,53.09
2017-09-16T09:50:55.522Z,52.89
2017-09-16T09:51:55.221Z,52.7
2017-09-16T09:52:55.565Z,52.42
2017-09-16T09:53:55.264Z,52.32
2017-09-16T09:54:55.606Z,52.54
2017-09-16T09:55:55.627Z,52.61
2017-09-16T09:56:56.472Z,52.25
2017-09-16T09:57:55.675Z,52.22
2017-09-16T09:58:55.689Z,52.22
2017-09-16T09:59:55.505Z,52.32
2017-09-16T10:00:55.413Z,52.32
2017-09-16T10:01:55.430Z,52.03
2017-09-16T10:02:55.450Z,52.03
2017-09-16T10:03:55.471Z,52.25
2017-09-16T10:04:55.813Z,52.22
2017-09-16T10:05:55.514Z,51.96
2017-09-16T10:06:55.535Z,51.48
2017-09-16T10:07:55.555Z,51.86
2017-09-16T10:08:55.902Z,51.38
2017-09-16T10:09:55.917Z,51.67
2017-09-16T10:10:55.619Z,51.48
2017-09-16T10:11:55.968Z,51.57
2017-09-16T10:12:55.662Z,51.29
2017-09-16T10:13:55.683Z,50.9
2017-09-16T10:14:56.028Z,51.29
2017-09-16T10:15:56.069Z,51.67
2017-09-16T10:16:56.141Z,51.19
2017-09-16T10:17:56.089Z,50.81
2017-09-16T10:18:55.787Z,51.19
2017-09-16T10:19:56.135Z,51.02
2017-09-16T10:20:56.153Z,50.63
2017-09-16T10:21:56.181Z,50.73
2017-09-16T10:22:56.199Z,50.54
2017-09-16T10:23:55.896Z,50.15
2017-09-16T10:24:55.917Z,50.54
2017-09-16T10:25:55.938Z,50.25
2017-09-16T10:26:56.281Z,50.45
2017-09-16T10:27:55.984Z,49.58
2017-09-16T10:28:56.322Z,49.48
2017-09-16T10:29:56.346Z,49.7
2017-09-16T10:30:56.046Z,49.32
2017-09-16T10:31:56.068Z,49.51
2017-09-16T10:32:56.087Z,49.41
2017-09-16T10:33:56.434Z,49.51
2017-09-16T10:34:56.456Z,48.93
2017-09-16T10:35:56.473Z,48.64
2017-09-16T10:36:56.495Z,48.54
2017-09-16T10:37:56.515Z,48.38
2017-09-16T10:38:56.222Z,48.38
2017-09-16T10:39:56.383Z,48.38
2017-09-16T10:40:56.698Z,48.57
2017-09-16T10:41:56.674Z,48.28
2017-09-16T10:42:56.382Z,47.99
2017-09-16T10:43:56.838Z,48.76
2017-09-16T10:44:56.452Z,48.18
2017-09-16T10:45:56.384Z,47.89
2017-09-16T10:46:56.714Z,47.31
2017-09-16T10:47:56.736Z,47.89
2017-09-16T10:48:56.756Z,47.8
2017-09-16T10:49:56.781Z,47.31
2017-09-16T10:50:56.800Z,47.6
2017-09-16T10:51:56.635Z,47.31
2017-09-16T10:52:56.868Z,47.6
2017-09-16T10:53:56.870Z,47.31
2017-09-16T10:54:56.890Z,47.24
2017-09-16T10:55:56.912Z,46.95
2017-09-16T10:56:56.608Z,47.31
2017-09-16T10:57:56.634Z,46.86
2017-09-16T10:58:56.977Z,46.56
2017-09-16T10:59:56.679Z,46.76
2017-09-16T11:00:56.701Z,46.47
2017-09-16T11:01:57.050Z,46.56
2017-09-16T11:02:56.747Z,46.47
2017-09-16T11:03:56.768Z,46.37
2017-09-16T11:04:57.111Z,46.47
2017-09-16T11:05:57.133Z,46.37
2017-09-16T11:06:56.834Z,46.47
2017-09-16T11:07:57.177Z,46.66
2017-09-16T11:08:56.876Z,47.34
2017-09-16T11:09:57.224Z,47.05
2017-09-16T11:10:57.248Z,46.95
2017-09-16T11:11:57.274Z,47.24
2017-09-16T11:12:56.968Z,46.97
2017-09-16T11:13:57.312Z,47.27
2017-09-16T11:14:57.332Z,46.97
2017-09-16T11:15:57.356Z,46.59
2017-09-16T11:16:57.379Z,46.88
2017-09-16T11:17:57.081Z,46.69
2017-09-16T11:18:57.426Z,46.4
2017-09-16T11:19:57.448Z,46.4
2017-09-16T11:20:57.147Z,46.2
2017-09-16T11:21:57.185Z,46.01
2017-09-16T11:22:57.516Z,45.53
2017-09-16T11:23:57.535Z,45.45
2017-09-16T11:24:57.237Z,45.36
2017-09-16T11:25:57.258Z,45.14
2017-09-16T11:26:57.608Z,45.14
2017-09-16T11:27:57.304Z,44.95
2017-09-16T11:28:57.652Z,44.85
2017-09-16T11:29:57.350Z,45.17
2017-09-16T11:30:57.696Z,45.04
2017-09-16T11:31:57.396Z,44.97
2017-09-16T11:32:57.745Z,44.87
2017-09-16T11:33:57.440Z,45.07
2017-09-16T11:34:57.846Z,45.07
2017-09-16T11:35:57.813Z,44.68
2017-09-16T11:36:57.511Z,44.59
2017-09-16T11:37:57.537Z,44.2
2017-09-16T11:38:57.879Z,43.91
2017-09-16T11:39:57.901Z,44.01
2017-09-16T11:40:57.924Z,43.52
2017-09-16T11:41:57.636Z,43.62
2017-09-16T11:42:57.650Z,43.43
2017-09-16T11:43:58.014Z,43.04
2017-09-16T11:44:58.075Z,42.85
2017-09-16T11:45:58.048Z,42.85
2017-09-16T11:46:58.081Z,42.75
2017-09-16T11:47:58.086Z,42.75
2017-09-16T11:48:58.112Z,42.94
2017-09-16T11:49:58.135Z,42.68
2017-09-16T11:50:58.168Z,42.85
2017-09-16T11:51:58.197Z,42.85
2017-09-16T11:52:58.206Z,42.39
2017-09-16T11:53:57.905Z,43.35
2017-09-16T11:54:58.259Z,43.16
2017-09-16T11:55:58.285Z,42.87
2017-09-16T11:56:57.975Z,42.68
2017-09-16T11:57:58.319Z,42.68
2017-09-16T11:58:58.019Z,42.58
2017-09-16T11:59:58.365Z,42.97
2017-09-16T12:00:58.069Z,42.39
2017-09-16T12:01:58.091Z,42.58
2017-09-16T12:02:58.118Z,42.58
2017-09-16T12:03:58.459Z,42.19
2017-09-16T12:04:58.161Z,42.58
2017-09-16T12:05:58.512Z,42.48
2017-09-16T12:06:58.535Z,42.39
2017-09-16T12:07:58.254Z,42.58
2017-09-16T12:08:58.575Z,42.39
2017-09-16T12:09:58.277Z,42.19
2017-09-16T12:10:58.301Z,41.71
2017-09-16T12:11:58.325Z,41.33
2017-09-16T12:12:58.677Z,41.33
2017-09-16T12:13:58.693Z,41.33
2017-09-16T12:14:58.398Z,41.42
2017-09-16T12:15:58.751Z,41.61
2017-09-16T12:16:58.881Z,41.91
2017-09-16T12:17:58.790Z,42
2017-09-16T12:18:58.489Z,41.25
2017-09-16T12:19:58.514Z,41.33
2017-09-16T12:20:58.866Z,41.05
2017-09-16T12:21:58.559Z,41.35
2017-09-16T12:22:58.970Z,41.05
2017-09-16T12:23:58.939Z,41.15
2017-09-16T12:24:58.639Z,41.05
2017-09-16T12:25:58.657Z,40.96
2017-09-16T12:26:58.680Z,40.57
2017-09-16T12:27:59.031Z,40.67
2017-09-16T12:28:59.051Z,40.28
2017-09-16T12:29:59.079Z,40.47
2017-09-16T12:30:59.102Z,40.77
2017-09-16T12:31:59.121Z,40.57
2017-09-16T12:32:59.144Z,40.67
2017-09-16T12:33:59.171Z,40.67
2017-09-16T12:34:59.291Z,40.96
2017-09-16T12:35:59.432Z,41.15
2017-09-16T12:36:59.118Z,40.86
2017-09-16T12:37:59.872Z,41.05
2017-09-16T12:38:59.614Z,41.25
2017-09-16T12:39:58.991Z,41.05
2017-09-16T12:40:59.016Z,40.86
2017-09-16T12:41:59.395Z,40.96
2017-09-16T12:42:59.387Z,40.69
2017-09-16T12:43:59.414Z,40.57
2017-09-16T12:44:59.113Z,40.77
2017-09-16T12:45:59.461Z,41.08
2017-09-16T12:46:59.159Z,40.98
2017-09-16T12:47:59.507Z,40.59
2017-09-16T12:48:59.537Z,40.69
2017-09-16T12:49:59.232Z,40.69
2017-09-16T12:50:59.584Z,40.28
2017-09-16T12:51:59.280Z,40.38
2017-09-16T12:52:59.308Z,39.92
2017-09-16T12:53:59.652Z,40.38
2017-09-16T12:54:59.680Z,40.5
2017-09-16T12:55:59.754Z,40.3